Latest Weather Observations for Kuitpo

IDS60801

Issued at 9:41 pm CDT Thursday 17 January 2019 (issued every 10 minutes, with the page automatically refreshed every 10 minutes)

About weather observations | Map of weather stations | Latest weather observations for SA | Other Formats
Station Details ID: 023887 Name: KUITPO FOREST RESERVE Lat: -35.17 Lon: 138.68 Height: 365.0 m
Data from the previous 72 hours. | See also: Recent months at Kuitpo
Date/Time
CDT
Temp
°C
App
Temp
°C
Dew
Point
°C
Rel
Hum
%
Delta-T
°C
Wind Press
QNH
hPa
Press
MSL
hPa
Rain since
9am
mm
Dir  Spd
km/h
Gust
km/h
Spd
kts
Gust
kts
17/09:30pm 26.8 26.1 13.2 43 8.1 ENE 9 15 5 8 1009.0 1007.6 0.0
17/09:00pm 28.0 26.7 12.4 38 9.2 SE 11 17 6 9 1008.7 1007.3 0.0
17/08:30pm 27.6 27.1 12.8 40 8.8 S 7 13 4 7 1008.9 1007.5 0.0
17/08:00pm 27.3 27.0 13.3 42 8.4 SSW 7 13 4 7 1008.5 1007.1 0.0
17/07:30pm 27.6 26.2 13.5 41 8.5 SW 13 24 7 13 1008.8 1007.4 0.0
17/07:00pm 28.2 25.9 14.1 42 8.6 SW 19 30 10 16 1008.8 1007.4 0.0
17/06:30pm 29.1 27.3 13.3 37 9.5 SW 15 24 8 13 1008.6 1007.2 0.0
17/06:00pm 29.1 26.6 14.1 40 9.2 WSW 20 30 11 16 1008.4 1007.0 0.0
17/05:30pm 29.7 28.5 15.0 40 9.1 SW 15 22 8 12 1008.1 1006.7 0.0
17/05:00pm 30.5 30.3 14.6 38 9.8 SSW 9 17 5 9 1008.2 1006.8 0.0
17/04:30pm 29.5 28.4 15.2 41 8.9 WSW 15 28 8 15 1008.3 1006.9 0.0
17/04:00pm 32.1 30.9 12.8 30 11.7 SW 11 17 6 9 1007.9 1006.5 0.0
17/03:30pm 34.0 31.9 11.2 25 13.6 WSW 13 20 7 11 1008.0 1006.6 0.0
17/03:00pm 34.5 32.3 12.2 26 13.5 SW 15 24 8 13 1008.3 1006.9 0.0
17/02:30pm 35.2 33.2 10.3 22 14.7 SW 11 19 6 10 1008.6 1007.2 0.0
17/02:00pm 34.7 33.6 11.8 25 13.8 WSW 9 15 5 8 1008.6 1007.2 0.0
17/01:30pm 34.2 33.3 11.4 25 13.6 NNW 7 13 4 7 1008.6 1007.2 0.0
17/01:00pm 34.3 32.3 10.2 23 14.1 NNW 11 17 6 9 1008.8 1007.4 0.0
17/12:30pm 34.5 33.5 11.0 24 14.0 NNW 7 17 4 9 1009.0 1007.6 0.0
17/12:00pm 32.9 32.4 12.0 28 12.6 NW 6 11 3 6 1009.2 1007.8 0.0
17/11:30am 32.6 31.4 11.7 28 12.5 NW 9 13 5 7 1009.2 1007.8 0.0
17/11:00am 31.9 30.1 12.2 30 11.8 WSW 13 20 7 11 1009.3 1007.9 0.0
17/10:30am 32.6 30.3 11.7 28 12.5 WSW 15 28 8 15 1009.3 1007.9 0.0
17/10:00am 32.8 30.9 11.9 28 12.5 WSW 13 24 7 13 1009.5 1008.1 0.0
17/09:30am 30.5 30.1 12.4 33 10.8 SW 6 11 3 6 1009.7 1008.3 0.0
17/09:00am 29.5 29.9 12.4 35 10.2 WNW 2 6 1 3 1010.1 1008.7 0.0
17/08:30am 29.7 28.7 12.2 34 10.4 W 9 15 5 8 1009.9 1008.5 0.0
17/08:00am 25.8 24.7 11.9 42 8.1 NNE 9 11 5 6 1009.6 1008.2 0.0
17/07:30am 25.6 24.5 12.1 43 7.9 NE 9 13 5 7 1008.9 1007.5 0.0
17/07:00am 25.3 24.2 11.8 43 7.8 NE 9 15 5 8 1009.5 1008.1 0.0
17/06:30am 26.1 25.2 11.5 40 8.5 SE 7 11 4 6 1008.7 1007.3 0.0
17/06:00am 24.6 23.5 11.9 45 7.4 NNE 9 15 5 8 1009.2 1007.8 0.0
17/05:30am 24.6 22.6 11.5 44 7.5 E 13 19 7 10 1008.8 1007.4 0.0
17/05:00am 24.5 21.7 11.5 44 7.5 SE 17 22 9 12 1008.5 1007.1 0.0
17/04:30am 24.0 21.2 11.3 45 7.3 SSE 17 24 9 13 1008.7 1007.3 0.0
17/04:00am 24.3 21.4 10.9 43 7.6 SSE 17 26 9 14 1009.4 1008.0 0.0
17/03:30am 24.4 21.6 11.4 44 7.5 SSE 17 26 9 14 1009.4 1008.0 0.0
17/03:00am 24.4 22.9 13.0 49 6.7 S 13 20 7 11 1009.5 1008.1 0.0
17/02:30am 24.9 23.6 12.5 46 7.3 SW 11 15 6 8 1010.2 1008.8 0.0
17/02:00am 23.5 23.1 15.3 60 5.0 WSW 11 20 6 11 1010.3 1009.0 0.0
17/01:30am 24.7 22.4 14.2 52 6.3 WSW 19 41 10 22 1009.8 1008.4 0.0
17/01:00am 27.4 26.5 11.4 37 9.3 N 7 9 4 5 1008.8 1007.4 0.0
17/12:30am 26.8 26.3 12.5 41 8.4 NNE 7 11 4 6 1008.8 1007.4 0.0
17/12:00am 27.6 25.8 12.0 38 9.2 NW 13 17 7 9 1008.6 1007.2 0.0
 
Date/Time
CDT
Temp
°C
App
Temp
°C
Dew
Point
°C
Rel
Hum
%
Delta-T
°C
Wind Press
QNH
hPa
Press
MSL
hPa
Rain since
9am
mm
Dir  Spd
km/h
Gust
km/h
Spd
kts
Gust
kts
16/11:30pm 26.4 26.0 12.5 42 8.2 W 6 9 3 5 1008.4 1007.0 0.0
16/11:00pm 24.7 24.4 14.5 53 6.2 N 9 26 5 14 1008.3 1006.9 0.0
16/10:30pm 24.3 22.4 14.1 53 6.1 SE 17 26 9 14 1008.8 1007.4 0.0
16/10:28pm 24.8 23.2 14.0 51 6.5 SE 15 26 8 14 1008.9 1007.5 0.0
16/10:00pm 30.0 28.4 11.5 32 10.9 SSW 11 19 6 10 1008.3 1006.9 0.0
16/09:30pm 31.3 30.2 10.6 28 12.1 W 7 20 4 11 1008.0 1006.6 0.0
16/09:00pm 31.7 29.6 11.0 28 12.2 NW 13 17 7 9 1007.8 1006.3 0.0
16/08:30pm 31.3 29.0 11.7 30 11.7 NNW 15 24 8 13 1008.0 1006.6 0.0
16/08:00pm 32.5 29.3 11.1 27 12.6 WNW 19 37 10 20 1007.8 1006.3 0.0
16/07:30pm 34.1 30.6 8.7 21 14.6 NNW 17 30 9 16 1007.2 1005.8 0.0
16/07:00pm 34.3 30.3 8.1 20 14.9 NNW 19 37 10 20 1006.8 1005.4 0.0
16/06:30pm 34.7 30.8 6.9 18 15.6 NNW 17 30 9 16 1007.0 1005.6 0.0
16/06:00pm 36.4 31.1 6.6 16 16.8 NW 24 43 13 23 1006.7 1005.3 0.0
16/05:30pm 38.0 34.0 4.8 13 18.3 NNW 15 28 8 15 1006.7 1005.3 0.0
16/05:00pm 35.9 35.3 13.4 26 13.9 ENE 9 13 5 7 1006.7 1005.3 0.0
16/04:30pm 32.8 32.2 13.4 30 11.9 ESE 9 13 5 7 1007.1 1005.7 0.0
16/04:00pm 31.3 29.2 13.6 34 10.8 E 17 26 9 14 1007.2 1005.8 0.0
16/03:30pm 32.1 29.7 12.8 30 11.7 E 17 22 9 12 1007.6 1006.1 0.0
16/03:00pm 32.7 29.7 11.8 28 12.5 E 19 24 10 13 1008.1 1006.7 0.0
16/02:30pm 33.4 30.7 12.9 28 12.5 ESE 19 28 10 15 1008.6 1007.2 0.0
16/02:00pm 35.2 31.0 9.6 21 14.9 E 22 33 12 18 1008.5 1007.1 0.0
16/01:30pm 38.2 34.8 3.8 12 18.7 ENE 11 20 6 11 1008.8 1007.4 0.0
16/01:00pm 37.6 34.5 3.4 12 18.4 NE 9 15 5 8 1009.4 1008.0 0.0
16/12:30pm 35.1 32.6 6.4 17 16.0 ESE 9 13 5 7 1009.7 1008.3 0.0
16/12:00pm 33.0 32.2 6.3 19 14.7 CALM 0 0 0 0 1010.2 1008.8 0.0
16/11:30am 32.2 30.4 7.1 21 13.9 NNE 6 11 3 6 1010.6 1009.2 0.0
16/11:00am 32.2 29.5 5.7 19 14.4 NE 9 13 5 7 1010.0 1008.6 0.0
16/10:30am 31.7 28.9 5.3 19 14.2 NE 9 17 5 9 1010.6 1009.2 0.0
16/10:00am 29.3 26.8 6.7 24 12.3 ENE 9 13 5 7 1010.8 1009.4 0.0
16/09:30am 27.6 23.8 4.0 22 12.1 ENE 13 19 7 10 1010.7 1009.3 0.0
16/09:00am 27.1 24.0 5.4 25 11.4 NE 11 19 6 10 1010.8 1009.4 0.0
16/08:30am 27.5 24.1 3.9 22 12.1 NE 11 13 6 7 1011.0 1009.6 0.0
16/08:00am 26.3 22.9 4.1 24 11.3 ENE 11 17 6 9 1010.7 1009.3 0.0
16/07:30am 22.6 19.3 6.4 35 8.4 ESE 13 17 7 9 1010.2 1008.8 0.0
16/07:00am 22.9 20.0 4.4 30 9.3 ENE 9 13 5 7 1009.9 1008.5 0.0
16/06:30am 19.5 17.1 6.9 44 6.5 S 9 13 5 7 1010.0 1008.6 0.0
16/06:00am 21.5 17.1 5.0 34 8.3 ENE 17 20 9 11 1008.7 1007.3 0.0
16/05:30am 21.0 16.4 5.8 37 7.7 ENE 19 22 10 12 1008.5 1007.1 0.0
16/05:00am 21.5 15.8 5.0 34 8.3 ENE 24 32 13 17 1008.1 1006.7 0.0
16/04:30am 20.6 15.7 6.9 41 7.1 ENE 22 30 12 16 1008.3 1006.9 0.0
16/04:00am 20.0 15.8 8.4 47 6.2 ENE 20 28 11 15 1008.7 1007.3 0.0
16/03:30am 20.3 16.0 8.0 45 6.5 E 20 26 11 14 1008.7 1007.3 0.0
16/03:00am 19.0 15.3 10.3 57 4.8 ESE 20 26 11 14 1009.0 1007.6 0.0
16/02:30am 19.3 14.9 10.3 56 4.9 ESE 24 28 13 15 1009.3 1007.9 0.0
16/02:00am 19.8 15.3 10.0 53 5.3 ESE 24 32 13 17 1009.7 1008.3 0.0
16/01:30am 19.4 15.4 10.4 56 4.9 SE 22 30 12 16 1009.9 1008.5 0.0
16/01:00am 20.1 15.5 9.7 51 5.7 SE 24 35 13 19 1010.1 1008.7 0.0
16/12:30am 20.4 16.4 9.0 48 6.1 SE 20 30 11 16 1010.5 1009.1 0.0
16/12:00am 20.8 16.0 8.8 46 6.4 SE 24 37 13 20 1010.7 1009.3 0.0
 
Date/Time
CDT
Temp
°C
App
Temp
°C
Dew
Point
°C
Rel
Hum
%
Delta-T
°C
Wind Press
QNH
hPa
Press
MSL
hPa
Rain since
9am
mm
Dir  Spd
km/h
Gust
km/h
Spd
kts
Gust
kts
15/11:30pm 21.3 16.2 7.5 41 7.3 SE 24 35 13 19 1011.0 1009.6 0.0
15/11:00pm 21.8 16.5 8.3 42 7.2 SE 26 37 14 20 1011.0 1009.6 0.0
15/10:30pm 22.3 17.6 9.1 43 7.2 SSE 24 37 13 20 1011.1 1009.7 0.0
15/10:00pm 23.8 19.7 10.1 42 7.6 SE 22 39 12 21 1010.6 1009.2 0.0
15/09:30pm 26.3 21.7 6.4 28 10.6 ESE 20 28 11 15 1009.9 1008.5 0.0
15/09:00pm 29.7 23.5 -0.6 14 14.6 ESE 22 33 12 18 1010.1 1008.7 0.0
15/08:30pm 32.4 26.8 -6.0 8 17.2 ESE 15 22 8 12 1010.2 1008.8 0.0
15/08:00pm 33.3 30.0 -1.1 11 16.8 SSE 6 11 3 6 1010.1 1008.7 0.0
15/07:30pm 34.2 31.0 0.8 12 16.9 E 7 11 4 6 1009.6 1008.2 0.0
15/07:00pm 36.0 31.7 -1.8 9 18.6 E 11 15 6 8 1009.3 1007.9 0.0
15/06:30pm 36.3 32.0 -1.6 9 18.7 SE 11 20 6 11 1009.4 1008.0 0.0
15/06:00pm 36.7 32.1 -1.3 9 18.9 SE 13 20 7 11 1009.3 1007.9 0.0
15/05:30pm 37.0 32.6 0.4 10 18.7 ESE 13 24 7 13 1009.2 1007.8 0.0
15/05:00pm 38.6 35.5 0.1 9 19.8 S 6 13 3 7 1009.4 1008.0 0.0
15/04:30pm 37.9 34.4 1.0 10 19.2 WSW 9 17 5 9 1009.6 1008.2 0.0
15/04:00pm 38.1 35.2 1.2 10 19.2 S 6 17 3 9 1009.6 1008.2 0.0
15/03:30pm 37.1 32.7 0.4 10 18.8 SSE 13 24 7 13 1009.8 1008.4 0.0
15/03:00pm 37.0 32.8 4.0 13 17.9 S 15 26 8 14 1010.3 1009.0 0.0
15/02:30pm 36.3 31.3 1.2 11 18.1 S 17 26 9 14 1010.6 1009.2 0.0
15/02:00pm 36.7 32.1 1.5 11 18.3 SSW 15 26 8 14 1010.8 1009.4 0.0
15/01:30pm 35.9 31.4 -0.5 10 18.2 WSW 13 20 7 11 1011.1 1009.7 0.0
15/01:00pm 34.6 29.2 -1.4 10 17.6 WSW 17 28 9 15 1011.4 1010.0 0.0
15/12:30pm 33.5 27.5 1.3 13 16.4 WSW 22 37 12 20 1011.4 1010.0 0.0
15/12:00pm 33.9 28.5 2.7 14 16.3 WSW 20 32 11 17 1010.8 1009.4 0.0
15/11:30am 35.0 29.8 2.5 13 17.0 W 19 26 10 14 1010.0 1008.6 0.0
15/11:00am 36.4 32.2 3.6 13 17.6 WNW 15 22 8 12 1009.7 1008.3 0.0
15/10:30am 36.7 33.6 1.5 11 18.3 NNW 7 11 4 6 1009.7 1008.3 0.0
15/10:00am 34.0 30.8 2.8 14 16.3 NNE 9 17 5 9 1009.8 1008.4 0.0
15/09:30am 32.2 28.9 2.3 15 15.3 NE 9 13 5 7 1009.8 1008.4 0.0
15/09:00am 29.8 26.4 2.1 17 14.0 NE 9 17 5 9 1010.1 1008.7 0.0
15/08:30am 28.7 25.4 0.4 16 13.7 NE 7 11 4 6 1010.1 1008.7 0.0
15/08:00am 26.9 23.7 -0.2 17 12.8 NNE 6 9 3 5 1010.1 1008.7 0.0
15/07:30am 25.7 22.2 -1.2 17 12.4 WNW 7 9 4 5 1010.0 1008.6 0.0
15/07:00am 25.5 21.6 -1.3 17 12.3 W 9 13 5 7 1010.1 1008.7 0.0
15/06:30am 26.0 21.3 -9.3 9 14.1 WNW 9 13 5 7 1009.9 1008.5 0.0
15/06:00am 25.5 20.7 -11.1 8 14.1 N 9 11 5 6 1009.8 1008.4 0.0
15/05:30am 24.8 18.9 -10.2 9 13.6 NE 15 20 8 11 1009.3 1007.9 0.0
15/05:00am 25.2 19.2 -11.4 8 13.9 NE 15 22 8 12 1009.0 1007.6 0.0
15/04:30am 25.5 18.8 -11.1 8 14.1 NE 19 30 10 16 1008.7 1007.3 0.0
15/04:00am 25.1 18.8 -10.0 9 13.7 NE 17 26 9 14 1008.8 1007.4 0.0
15/03:30am 25.8 19.0 -9.4 9 14.0 NE 20 28 11 15 1009.0 1007.6 0.0
15/03:00am 26.2 19.4 -9.1 9 14.2 NE 20 26 11 14 1009.3 1007.9 0.0
15/02:30am 26.2 19.6 -9.1 9 14.2 ENE 19 24 10 13 1009.5 1008.1 0.0
15/02:00am 26.1 20.3 -9.2 9 14.1 ENE 15 19 8 10 1009.9 1008.5 0.0
15/01:30am 25.8 19.8 -6.9 11 13.6 ENE 17 22 9 12 1009.9 1008.5 0.0
15/01:00am 25.4 19.6 -5.0 13 13.0 ENE 17 20 9 11 1010.2 1008.8 0.0
15/12:30am 25.4 19.1 -4.0 14 12.9 ENE 20 28 11 15 1010.3 1009.0 0.0
15/12:00am 25.5 19.6 -6.0 12 13.3 ENE 17 20 9 11 1010.5 1009.1 0.0
 
Date/Time
CDT
Temp
°C
App
Temp
°C
Dew
Point
°C
Rel
Hum
%
Delta-T
°C
Wind Press
QNH
hPa
Press
MSL
hPa
Rain since
9am
mm
Dir  Spd
km/h
Gust
km/h
Spd
kts
Gust
kts
14/11:30pm 26.2 20.2 -6.5 11 13.7 ENE 17 22 9 12 1010.8 1009.4 0.0
14/11:00pm 26.0 19.9 -3.5 14 13.1 E 19 22 10 12 1011.0 1009.6 0.0
14/10:30pm 26.2 20.2 -3.4 14 13.2 E 19 20 10 11 1011.3 1009.9 0.0
14/10:00pm 25.8 20.3 -1.9 16 12.6 ESE 17 22 9 12 1011.4 1010.0 0.0

Other Formats:

Comma delimited format used in spreadsheet applications
http://www.bom.gov.au/fwo/IDS60801/IDS60801.94683.axf

JavaScript Object Notation format (JSON) in row-major order
http://www.bom.gov.au/fwo/IDS60801/IDS60801.94683.json